createdAt,value
2017-10-20T00:00:01.495Z,1010.28
2017-10-20T00:01:01.932Z,1010.28
2017-10-20T00:02:02.350Z,1010.28
2017-10-20T00:03:02.782Z,1010.29
2017-10-20T00:04:03.210Z,1010.31
2017-10-20T00:05:03.637Z,1010.30
2017-10-20T00:06:04.083Z,1010.29
2017-10-20T00:07:04.501Z,1010.30
2017-10-20T00:08:04.926Z,1010.27
2017-10-20T00:09:05.358Z,1010.28
2017-10-20T00:10:05.784Z,1010.31
2017-10-20T00:11:06.213Z,1010.32
2017-10-20T00:12:06.637Z,1010.31
2017-10-20T00:13:07.068Z,1010.30
2017-10-20T00:14:07.509Z,1010.33
2017-10-20T00:15:07.928Z,1010.30
2017-10-20T00:16:08.356Z,1010.28
2017-10-20T00:17:08.783Z,1010.29
2017-10-20T00:18:09.230Z,1010.27
2017-10-20T00:19:09.670Z,1010.28
2017-10-20T00:20:10.069Z,1010.27
2017-10-20T00:21:10.498Z,1010.29
2017-10-20T00:22:10.927Z,1010.27
2017-10-20T00:23:11.355Z,1010.27
2017-10-20T00:24:11.784Z,1010.23
2017-10-20T00:25:12.215Z,1010.23
2017-10-20T00:26:12.645Z,1010.25
2017-10-20T00:27:13.072Z,1010.22
2017-10-20T00:28:13.505Z,1010.26
2017-10-20T00:29:13.928Z,1010.27
2017-10-20T00:30:14.363Z,1010.29
2017-10-20T00:31:14.809Z,1010.24
2017-10-20T00:32:15.216Z,1010.25
2017-10-20T00:33:15.645Z,1010.27
2017-10-20T00:34:16.074Z,1010.22
2017-10-20T00:35:16.500Z,1010.27
2017-10-20T00:36:16.932Z,1010.23
2017-10-20T00:37:17.360Z,1010.25
2017-10-20T00:38:17.790Z,1010.28
2017-10-20T00:39:18.215Z,1010.28
2017-10-20T00:40:18.657Z,1010.27
2017-10-20T00:41:19.072Z,1010.25
2017-10-20T00:42:19.506Z,1010.29
2017-10-20T00:43:19.935Z,1010.30
2017-10-20T00:44:20.362Z,1010.28
2017-10-20T00:45:20.788Z,1010.29
2017-10-20T00:46:21.219Z,1010.29
2017-10-20T00:47:21.649Z,1010.29
2017-10-20T00:48:22.077Z,1010.26
2017-10-20T00:49:22.505Z,1010.25
2017-10-20T00:50:22.936Z,1010.27
2017-10-20T00:51:23.359Z,1010.23
2017-10-20T00:52:23.790Z,1010.22
2017-10-20T00:53:24.219Z,1010.22
2017-10-20T00:54:24.646Z,1010.26
2017-10-20T00:55:25.081Z,1010.24
2017-10-20T00:56:25.502Z,1010.22
2017-10-20T00:57:25.931Z,1010.24
2017-10-20T00:58:26.362Z,1010.24
2017-10-20T00:59:26.787Z,1010.21
2017-10-20T01:00:27.217Z,1010.22
2017-10-20T01:01:27.647Z,1010.22
2017-10-20T01:02:28.077Z,1010.22
2017-10-20T01:03:28.505Z,1010.22
2017-10-20T01:04:28.954Z,1010.18
2017-10-20T01:05:29.362Z,1010.23
2017-10-20T01:06:29.788Z,1010.23
2017-10-20T01:07:30.221Z,1010.24
2017-10-20T01:08:30.645Z,1010.24
2017-10-20T01:09:31.087Z,1010.28
2017-10-20T01:10:31.503Z,1010.22
2017-10-20T01:11:31.934Z,1010.23
2017-10-20T01:12:32.362Z,1010.22
2017-10-20T01:13:32.790Z,1010.21
2017-10-20T01:14:33.218Z,1010.18
2017-10-20T01:15:33.649Z,1010.24
2017-10-20T01:16:34.073Z,1010.19
2017-10-20T01:17:34.505Z,1010.19
2017-10-20T01:18:34.933Z,1010.17
2017-10-20T01:19:35.369Z,1010.22
2017-10-20T01:20:35.792Z,1010.22
2017-10-20T01:21:36.215Z,1010.20
2017-10-20T01:22:36.646Z,1010.21
2017-10-20T01:23:37.075Z,1010.24
2017-10-20T01:24:37.508Z,1010.21
2017-10-20T01:25:37.930Z,1010.21
2017-10-20T01:26:38.358Z,1010.22
2017-10-20T01:27:38.787Z,1010.24
2017-10-20T01:28:39.217Z,1010.21
2017-10-20T01:29:39.646Z,1010.23
2017-10-20T01:30:40.074Z,1010.22
2017-10-20T01:31:40.500Z,1010.19
2017-10-20T01:32:40.936Z,1010.25
2017-10-20T01:33:41.360Z,1010.25
2017-10-20T01:34:41.787Z,1010.21
2017-10-20T01:35:42.215Z,1010.26
2017-10-20T01:36:42.643Z,1010.25
2017-10-20T01:37:43.074Z,1010.23
2017-10-20T01:38:43.502Z,1010.25
2017-10-20T01:39:43.930Z,1010.20
2017-10-20T01:40:44.366Z,1010.17
2017-10-20T01:41:44.795Z,1010.17
2017-10-20T01:42:45.217Z,1010.18
2017-10-20T01:43:45.644Z,1010.13
2017-10-20T01:44:46.071Z,1010.13
2017-10-20T01:45:46.507Z,1010.16
2017-10-20T01:46:46.935Z,1010.16
2017-10-20T01:47:47.358Z,1010.17
2017-10-20T01:48:47.786Z,1010.21
2017-10-20T01:49:48.216Z,1010.22
2017-10-20T01:50:48.644Z,1010.22
2017-10-20T01:51:49.077Z,1010.22
2017-10-20T01:52:49.500Z,1010.20
2017-10-20T01:53:49.929Z,1010.21
2017-10-20T01:54:50.358Z,1010.16
2017-10-20T01:55:50.789Z,1010.14
2017-10-20T01:56:51.213Z,1010.13
2017-10-20T01:57:51.647Z,1010.14
2017-10-20T01:58:52.073Z,1010.13
2017-10-20T01:59:52.507Z,1010.16
2017-10-20T02:00:52.930Z,1010.14
2017-10-20T02:01:53.360Z,1010.13
2017-10-20T02:02:53.790Z,1010.13
2017-10-20T02:03:54.214Z,1010.13
2017-10-20T02:04:54.646Z,1010.10
2017-10-20T02:05:55.075Z,1010.08
2017-10-20T02:06:55.504Z,1010.10
2017-10-20T02:07:55.933Z,1010.12
2017-10-20T02:08:56.364Z,1010.13
2017-10-20T02:09:56.786Z,1010.14
2017-10-20T02:10:57.217Z,1010.13
2017-10-20T02:11:57.647Z,1010.16
2017-10-20T02:12:58.077Z,1010.13
2017-10-20T02:13:58.505Z,1010.14
2017-10-20T02:14:58.937Z,1010.13
2017-10-20T02:15:59.356Z,1010.18
2017-10-20T02:16:59.786Z,1010.19
2017-10-20T02:18:00.215Z,1010.19
2017-10-20T02:19:00.650Z,1010.21
2017-10-20T02:20:01.073Z,1010.20
2017-10-20T02:21:01.499Z,1010.20
2017-10-20T02:22:01.927Z,1010.17
2017-10-20T02:23:02.358Z,1010.19
2017-10-20T02:24:02.790Z,1010.18
2017-10-20T02:25:03.213Z,1010.17
2017-10-20T02:26:03.641Z,1010.10
2017-10-20T02:27:04.086Z,1010.18
2017-10-20T02:28:04.506Z,1010.18
2017-10-20T02:29:04.925Z,1010.12
2017-10-20T02:30:05.356Z,1010.14
2017-10-20T02:31:05.787Z,1010.15
2017-10-20T02:32:06.212Z,1010.12
2017-10-20T02:33:06.644Z,1010.16
2017-10-20T02:34:07.070Z,1010.11
2017-10-20T02:35:07.494Z,1010.07
2017-10-20T02:36:07.924Z,1010.10
2017-10-20T02:37:08.354Z,1010.10
2017-10-20T02:38:08.782Z,1010.10
2017-10-20T02:39:09.209Z,1010.06
2017-10-20T02:40:09.634Z,1010.07
2017-10-20T02:41:10.071Z,1010.03
2017-10-20T02:42:10.492Z,1010.05
2017-10-20T02:43:10.923Z,1010.04
2017-10-20T02:44:11.347Z,1010.04
2017-10-20T02:45:11.782Z,1010.00
2017-10-20T02:46:12.205Z,1010.05
2017-10-20T02:47:12.631Z,1010.03
2017-10-20T02:48:13.059Z,1010.04
2017-10-20T02:49:13.493Z,1010.08
2017-10-20T02:50:13.914Z,1010.07
2017-10-20T02:51:14.349Z,1010.10
2017-10-20T02:52:14.772Z,1010.10
2017-10-20T02:53:15.202Z,1010.10
2017-10-20T02:54:15.634Z,1010.10
2017-10-20T02:55:16.055Z,1010.07
2017-10-20T02:56:16.482Z,1010.03
2017-10-20T02:57:16.926Z,1010.00
2017-10-20T02:58:17.346Z,1010.06
2017-10-20T02:59:17.765Z,1010.12
2017-10-20T03:00:18.196Z,1010.09
2017-10-20T03:01:18.620Z,1010.11
2017-10-20T03:02:19.049Z,1010.13
2017-10-20T03:03:19.484Z,1010.09
2017-10-20T03:04:19.914Z,1010.10
2017-10-20T03:05:20.333Z,1010.10
2017-10-20T03:06:20.763Z,1010.12
2017-10-20T03:07:21.188Z,1010.08
2017-10-20T03:08:21.615Z,1010.06
2017-10-20T03:09:22.058Z,1010.07
2017-10-20T03:10:22.476Z,1010.02
2017-10-20T03:11:22.900Z,1010.01
2017-10-20T03:12:23.325Z,1010.02
2017-10-20T03:13:23.754Z,1009.98
2017-10-20T03:14:24.201Z,1010.00
2017-10-20T03:15:24.610Z,1010.02
2017-10-20T03:16:25.036Z,1010.01
2017-10-20T03:17:25.467Z,1010.01
2017-10-20T03:18:25.897Z,1009.96
2017-10-20T03:19:26.319Z,1010.02
2017-10-20T03:20:26.747Z,1009.98
2017-10-20T03:21:27.178Z,1010.02
2017-10-20T03:22:27.610Z,1010.01
2017-10-20T03:23:28.034Z,1009.98
2017-10-20T03:24:28.457Z,1009.99
2017-10-20T03:25:28.886Z,1010.00
2017-10-20T03:26:29.317Z,1010.01
2017-10-20T03:27:29.742Z,1009.98
2017-10-20T03:28:30.174Z,1010.03
2017-10-20T03:29:30.597Z,1010.05
2017-10-20T03:30:31.031Z,1010.07
2017-10-20T03:31:31.453Z,1010.05
2017-10-20T03:32:31.878Z,1010.08
2017-10-20T03:33:32.310Z,1010.08
2017-10-20T03:34:32.734Z,1010.07
2017-10-20T03:35:33.174Z,1010.09
2017-10-20T03:36:33.590Z,1010.07
2017-10-20T03:37:34.017Z,1010.08
2017-10-20T03:38:34.445Z,1010.07
2017-10-20T03:39:34.874Z,1010.07
2017-10-20T03:40:35.303Z,1010.10
2017-10-20T03:41:35.787Z,1010.09
2017-10-20T03:42:36.160Z,1010.08
2017-10-20T03:43:36.583Z,1010.09
2017-10-20T03:45:37.478Z,1010.04
2017-10-20T03:46:37.899Z,1009.99
2017-10-20T03:47:38.328Z,1010.00
2017-10-20T03:48:38.752Z,1009.98
2017-10-20T03:49:39.184Z,1009.96
2017-10-20T03:50:39.607Z,1009.92
2017-10-20T03:52:01.198Z,1009.98
2017-10-20T03:52:40.462Z,1009.95
2017-10-20T03:53:40.891Z,1009.98
2017-10-20T03:54:41.326Z,1010.03
2017-10-20T03:55:41.745Z,1010.02
2017-10-20T03:56:42.177Z,1010.03
2017-10-20T03:58:03.777Z,1010.01
2017-10-20T03:58:43.031Z,1010.07
2017-10-20T03:59:43.457Z,1010.08
2017-10-20T04:00:43.887Z,1010.09
2017-10-20T04:01:44.315Z,1010.11
2017-10-20T04:02:44.768Z,1010.11
2017-10-20T04:04:06.328Z,1010.11
2017-10-20T04:04:45.592Z,1010.09
2017-10-20T04:05:46.029Z,1010.04
2017-10-20T04:06:46.455Z,1010.05
2017-10-20T04:07:46.877Z,1010.02
2017-10-20T04:08:47.307Z,1010.01
2017-10-20T04:10:08.900Z,1010.03
2017-10-20T04:10:48.157Z,1009.99
2017-10-20T04:11:48.587Z,1009.99
2017-10-20T04:12:49.020Z,1009.97
2017-10-20T04:13:49.440Z,1009.98
2017-10-20T04:14:49.874Z,1010.01
2017-10-20T04:16:11.463Z,1010.00
2017-10-20T04:16:50.720Z,1010.02
2017-10-20T04:17:51.153Z,1010.00
2017-10-20T04:18:51.579Z,1010.00
2017-10-20T04:19:52.010Z,1009.97
2017-10-20T04:20:52.433Z,1010.00
2017-10-20T04:22:14.024Z,1010.02
2017-10-20T04:22:53.291Z,1010.01
2017-10-20T04:23:53.722Z,1010.00
2017-10-20T04:24:54.168Z,1009.99
2017-10-20T04:25:54.566Z,1010.00
2017-10-20T04:26:54.995Z,1010.00
2017-10-20T04:28:16.589Z,1010.02
2017-10-20T04:28:55.855Z,1009.99
2017-10-20T04:29:56.280Z,1009.99
2017-10-20T04:30:56.717Z,1010.01
2017-10-20T04:31:57.135Z,1009.97
2017-10-20T04:32:57.563Z,1010.01
2017-10-20T04:34:19.165Z,1010.01
2017-10-20T04:34:58.413Z,1010.05
2017-10-20T04:35:58.846Z,1010.01
2017-10-20T04:36:59.282Z,1010.00
2017-10-20T04:37:59.698Z,1010.01
2017-10-20T04:39:00.126Z,1010.04
2017-10-20T04:40:21.721Z,1010.03
2017-10-20T04:41:00.990Z,1009.99
2017-10-20T04:42:01.408Z,1010.01
2017-10-20T04:43:01.837Z,1010.03
2017-10-20T04:44:02.268Z,1010.02
2017-10-20T04:45:02.689Z,1010.03
2017-10-20T04:46:24.272Z,1010.03
2017-10-20T04:47:03.552Z,1010.03
2017-10-20T04:48:03.989Z,1010.02
2017-10-20T04:49:04.397Z,1010.02
2017-10-20T04:50:04.827Z,1010.05
2017-10-20T04:51:05.252Z,1010.03
2017-10-20T04:52:26.841Z,1010.02
2017-10-20T04:53:06.125Z,1010.01
2017-10-20T04:54:06.532Z,1010.02
2017-10-20T04:55:06.972Z,1010.03
2017-10-20T04:56:07.393Z,1010.06
2017-10-20T04:57:07.825Z,1010.03
2017-10-20T04:58:29.403Z,1010.03
2017-10-20T04:59:08.673Z,1010.05
2017-10-20T05:00:09.101Z,1010.02
2017-10-20T05:01:09.524Z,1010.06
2017-10-20T05:02:09.955Z,1010.00
2017-10-20T05:03:10.380Z,1010.04
2017-10-20T05:04:31.969Z,1010.04
2017-10-20T05:05:11.241Z,1010.02
2017-10-20T05:06:11.662Z,1010.03
2017-10-20T05:07:12.089Z,1010.03
2017-10-20T05:08:12.518Z,1010.04
2017-10-20T05:09:12.940Z,1010.03
2017-10-20T05:10:34.528Z,1010.06
2017-10-20T05:11:13.805Z,1010.02
2017-10-20T05:12:14.230Z,1009.96
2017-10-20T05:13:14.647Z,1009.93
2017-10-20T05:14:15.083Z,1009.95
2017-10-20T05:15:15.509Z,1009.90
2017-10-20T05:16:37.091Z,1009.90
2017-10-20T05:17:16.371Z,1009.93
2017-10-20T05:18:16.791Z,1009.89
2017-10-20T05:19:17.218Z,1009.91
2017-10-20T05:20:17.648Z,1009.90
2017-10-20T05:21:18.067Z,1009.92
2017-10-20T05:22:39.657Z,1009.90
2017-10-20T05:23:18.921Z,1009.88
2017-10-20T05:24:19.351Z,1009.90
2017-10-20T05:25:19.775Z,1009.87
2017-10-20T05:26:20.228Z,1009.90
2017-10-20T05:27:20.641Z,1009.89
2017-10-20T05:28:42.217Z,1009.90
2017-10-20T05:29:21.486Z,1009.89
2017-10-20T05:30:21.918Z,1009.88
2017-10-20T05:31:22.343Z,1009.87
2017-10-20T05:32:22.765Z,1009.87
2017-10-20T05:33:23.197Z,1009.84
2017-10-20T05:34:44.782Z,1009.83
2017-10-20T05:35:24.049Z,1009.79
2017-10-20T05:36:24.482Z,1009.77
2017-10-20T05:37:24.918Z,1009.76
2017-10-20T05:38:25.332Z,1009.73
2017-10-20T05:39:25.758Z,1009.74
2017-10-20T05:40:47.349Z,1009.73
2017-10-20T05:41:26.615Z,1009.80
2017-10-20T05:42:27.040Z,1009.82
2017-10-20T05:43:27.471Z,1009.82
2017-10-20T05:44:27.896Z,1009.83
2017-10-20T05:45:28.329Z,1009.83
2017-10-20T05:46:49.922Z,1009.81
2017-10-20T05:47:29.173Z,1009.84
2017-10-20T05:48:29.606Z,1009.88
2017-10-20T05:49:30.030Z,1009.92
2017-10-20T05:50:30.464Z,1009.93
2017-10-20T05:51:30.894Z,1009.95
2017-10-20T05:52:52.476Z,1009.97
2017-10-20T05:53:31.736Z,1009.96
2017-10-20T05:54:32.160Z,1009.88
2017-10-20T05:55:32.595Z,1009.89
2017-10-20T05:56:33.022Z,1009.89
2017-10-20T05:57:33.443Z,1009.89
2017-10-20T05:58:55.047Z,1009.88
2017-10-20T05:59:34.303Z,1009.87
2017-10-20T06:00:34.735Z,1009.87
2017-10-20T06:01:35.163Z,1009.86
2017-10-20T06:02:35.583Z,1009.89
2017-10-20T06:03:36.052Z,1009.86
2017-10-20T06:04:57.603Z,1009.89
2017-10-20T06:05:36.869Z,1009.89
2017-10-20T06:06:37.293Z,1009.92
2017-10-20T06:07:37.721Z,1009.89
2017-10-20T06:08:38.153Z,1009.87
2017-10-20T06:09:38.574Z,1009.92
2017-10-20T06:11:00.164Z,1009.90
2017-10-20T06:11:39.481Z,1009.87
2017-10-20T06:12:39.865Z,1009.85
2017-10-20T06:13:40.288Z,1009.85
2017-10-20T06:14:40.711Z,1009.83
2017-10-20T06:15:41.136Z,1009.85
2017-10-20T06:17:02.745Z,1009.89
2017-10-20T06:17:41.993Z,1009.90
2017-10-20T06:18:42.421Z,1009.95
2017-10-20T06:19:42.852Z,1009.94
2017-10-20T06:20:43.270Z,1009.96
2017-10-20T06:21:43.702Z,1009.94
2017-10-20T06:23:05.294Z,1009.96
2017-10-20T06:23:44.560Z,1009.97
2017-10-20T06:24:44.993Z,1009.95
2017-10-20T06:25:45.418Z,1009.98
2017-10-20T06:26:45.853Z,1009.97
2017-10-20T06:27:46.273Z,1009.96
2017-10-20T06:29:07.858Z,1009.90
2017-10-20T06:29:47.132Z,1009.88
2017-10-20T06:30:47.611Z,1009.92
2017-10-20T06:31:47.997Z,1009.90
2017-10-20T06:32:48.411Z,1009.92
2017-10-20T06:33:48.858Z,1009.89
2017-10-20T06:35:10.422Z,1009.90
2017-10-20T06:35:49.692Z,1009.90
2017-10-20T06:36:50.116Z,1009.96
2017-10-20T06:37:50.551Z,1009.99
2017-10-20T06:38:50.970Z,1010.00
2017-10-20T06:39:51.401Z,1010.02
2017-10-20T06:41:12.987Z,1010.11
2017-10-20T06:41:52.252Z,1010.15
2017-10-20T06:42:52.679Z,1010.14
2017-10-20T06:43:53.114Z,1010.15
2017-10-20T06:44:53.543Z,1010.12
2017-10-20T06:45:53.969Z,1010.14
2017-10-20T06:47:15.570Z,1010.16
2017-10-20T06:47:54.818Z,1010.16
2017-10-20T06:48:55.248Z,1010.17
2017-10-20T06:49:55.674Z,1010.15
2017-10-20T06:50:56.111Z,1010.16
2017-10-20T06:51:56.530Z,1010.11
2017-10-20T06:53:18.119Z,1010.13
2017-10-20T06:53:57.386Z,1010.14
2017-10-20T06:54:57.816Z,1010.13
2017-10-20T06:55:58.250Z,1010.16
2017-10-20T06:56:58.701Z,1010.16
2017-10-20T06:57:59.114Z,1010.15
2017-10-20T06:59:20.690Z,1010.17
2017-10-20T06:59:59.964Z,1010.19
2017-10-20T07:01:00.381Z,1010.19
2017-10-20T07:02:00.821Z,1010.15
2017-10-20T07:03:01.243Z,1010.14
2017-10-20T07:04:01.668Z,1010.10
2017-10-20T07:05:23.265Z,1010.15
2017-10-20T07:06:02.523Z,1010.12
2017-10-20T07:07:02.949Z,1010.11
2017-10-20T07:08:03.386Z,1010.10
2017-10-20T07:09:03.806Z,1010.13
2017-10-20T07:10:04.247Z,1010.14
2017-10-20T07:11:25.823Z,1010.21
2017-10-20T07:12:05.089Z,1010.23
2017-10-20T07:13:05.519Z,1010.26
2017-10-20T07:14:05.944Z,1010.25
2017-10-20T07:15:06.374Z,1010.25
2017-10-20T07:16:06.811Z,1010.30
2017-10-20T07:17:28.389Z,1010.31
2017-10-20T07:18:07.661Z,1010.30
2017-10-20T07:19:08.089Z,1010.27
2017-10-20T07:20:08.534Z,1010.22
2017-10-20T07:21:08.941Z,1010.21
2017-10-20T07:22:09.377Z,1010.20
2017-10-20T07:23:30.963Z,1010.19
2017-10-20T07:24:10.236Z,1010.22
2017-10-20T07:25:10.665Z,1010.17
2017-10-20T07:26:11.093Z,1010.17
2017-10-20T07:27:11.514Z,1010.15
2017-10-20T07:28:12.013Z,1010.14
2017-10-20T07:29:33.544Z,1010.17
2017-10-20T07:30:12.817Z,1010.15
2017-10-20T07:31:13.231Z,1010.11
2017-10-20T07:32:13.661Z,1010.18
2017-10-20T07:33:14.111Z,1010.18
2017-10-20T07:34:14.526Z,1010.18
2017-10-20T07:35:36.103Z,1010.24
2017-10-20T07:36:15.372Z,1010.20
2017-10-20T07:37:15.802Z,1010.23
2017-10-20T07:38:16.238Z,1010.24
2017-10-20T07:39:16.671Z,1010.24
2017-10-20T07:40:17.090Z,1010.19
2017-10-20T07:41:38.676Z,1010.20
2017-10-20T07:42:17.950Z,1010.21
2017-10-20T07:43:18.375Z,1010.22
2017-10-20T07:44:18.808Z,1010.19
2017-10-20T07:45:19.237Z,1010.21
2017-10-20T07:46:19.668Z,1010.20
2017-10-20T07:47:41.252Z,1010.18
2017-10-20T07:48:20.532Z,1010.17
2017-10-20T07:49:20.963Z,1010.16
2017-10-20T07:50:21.386Z,1010.19
2017-10-20T07:51:21.811Z,1010.24
2017-10-20T07:52:22.239Z,1010.22
2017-10-20T07:53:43.839Z,1010.18
2017-10-20T07:54:23.103Z,1010.18
2017-10-20T07:55:23.533Z,1010.12
2017-10-20T07:56:23.953Z,1010.10
2017-10-20T07:57:24.396Z,1010.11
2017-10-20T07:58:24.824Z,1010.12
2017-10-20T07:59:46.405Z,1010.14
2017-10-20T08:00:25.681Z,1010.18
2017-10-20T08:01:26.112Z,1010.23
2017-10-20T08:02:26.535Z,1010.27
2017-10-20T08:03:26.969Z,1010.24
2017-10-20T08:04:27.402Z,1010.25
2017-10-20T08:05:48.983Z,1010.28
2017-10-20T08:06:28.263Z,1010.31
2017-10-20T08:07:28.691Z,1010.36
2017-10-20T08:08:29.124Z,1010.35
2017-10-20T08:09:29.553Z,1010.38
2017-10-20T08:10:29.989Z,1010.36
2017-10-20T08:11:51.568Z,1010.41
2017-10-20T08:12:30.841Z,1010.44
2017-10-20T08:13:31.271Z,1010.46
2017-10-20T08:14:31.722Z,1010.46
2017-10-20T08:15:32.137Z,1010.47
2017-10-20T08:16:32.566Z,1010.46
2017-10-20T08:17:54.154Z,1010.51
2017-10-20T08:18:33.424Z,1010.53
2017-10-20T08:19:33.861Z,1010.51
2017-10-20T08:20:34.298Z,1010.49
2017-10-20T08:21:34.720Z,1010.44
2017-10-20T08:22:35.148Z,1010.40
2017-10-20T08:23:56.747Z,1010.39
2017-10-20T08:24:36.019Z,1010.40
2017-10-20T08:25:36.454Z,1010.42
2017-10-20T08:26:36.885Z,1010.48
2017-10-20T08:27:37.314Z,1010.44
2017-10-20T08:28:37.746Z,1010.39
2017-10-20T08:29:59.335Z,1010.34
2017-10-20T08:30:38.605Z,1010.38
2017-10-20T08:31:39.042Z,1010.44
2017-10-20T08:32:39.495Z,1010.39
2017-10-20T08:33:39.914Z,1010.38
2017-10-20T08:34:40.345Z,1010.31
2017-10-20T08:36:01.939Z,1010.30
2017-10-20T08:36:41.209Z,1010.32
2017-10-20T08:37:41.643Z,1010.28
2017-10-20T08:38:42.089Z,1010.26
2017-10-20T08:39:42.520Z,1010.21
2017-10-20T08:40:42.956Z,1010.23
2017-10-20T08:42:04.560Z,1010.23
2017-10-20T08:42:43.844Z,1010.22
2017-10-20T08:43:44.266Z,1010.25
2017-10-20T08:44:44.709Z,1010.26
2017-10-20T08:45:45.161Z,1010.25
2017-10-20T08:46:45.592Z,1010.26
2017-10-20T08:48:07.203Z,1010.30
2017-10-20T08:48:46.475Z,1010.25
2017-10-20T08:49:46.922Z,1010.28
2017-10-20T08:50:47.356Z,1010.26
2017-10-20T08:51:47.806Z,1010.27
2017-10-20T08:52:48.250Z,1010.28
2017-10-20T08:54:09.856Z,1010.24
2017-10-20T08:54:49.136Z,1010.22
2017-10-20T08:55:49.585Z,1010.17
2017-10-20T08:56:50.022Z,1010.16
2017-10-20T08:57:50.470Z,1010.09
2017-10-20T08:58:50.916Z,1010.11
2017-10-20T09:00:12.523Z,1010.13
2017-10-20T09:00:51.802Z,1010.12
2017-10-20T09:01:52.260Z,1010.12
2017-10-20T09:02:52.720Z,1010.09
2017-10-20T09:03:53.149Z,1010.03
2017-10-20T09:04:53.588Z,1010.07
2017-10-20T09:06:15.211Z,1010.05
2017-10-20T09:06:54.488Z,1010.06
2017-10-20T09:07:54.931Z,1010.03
2017-10-20T09:08:55.384Z,1010.04
2017-10-20T09:09:55.829Z,1010.03
2017-10-20T09:10:56.277Z,1009.99
2017-10-20T09:12:17.892Z,1010.05
2017-10-20T09:12:57.179Z,1010.02
2017-10-20T09:13:57.649Z,1010.02
2017-10-20T09:14:58.074Z,1010.00
2017-10-20T09:15:58.511Z,1009.98
2017-10-20T09:16:58.963Z,1009.97
2017-10-20T09:18:20.580Z,1009.96
2017-10-20T09:18:59.861Z,1010.04
2017-10-20T09:20:00.299Z,1010.04
2017-10-20T09:21:00.753Z,1010.00
2017-10-20T09:22:01.202Z,1010.03
2017-10-20T09:23:01.649Z,1010.00
2017-10-20T09:24:23.270Z,1009.99
2017-10-20T09:25:02.538Z,1010.03
2017-10-20T09:26:02.993Z,1010.03
2017-10-20T09:27:03.448Z,1010.01
2017-10-20T09:28:03.903Z,1010.01
2017-10-20T09:29:04.333Z,1010.01
2017-10-20T09:30:25.951Z,1009.99
2017-10-20T09:31:05.236Z,1009.98
2017-10-20T09:32:05.701Z,1010.06
2017-10-20T09:33:06.129Z,1010.07
2017-10-20T09:34:06.634Z,1010.02
2017-10-20T09:35:07.024Z,1010.06
2017-10-20T09:36:28.633Z,1010.11
2017-10-20T09:37:07.938Z,1010.09
2017-10-20T09:38:08.365Z,1010.05
2017-10-20T09:39:08.808Z,1010.03
2017-10-20T09:40:09.255Z,1010.05
2017-10-20T09:41:09.704Z,1010.08
2017-10-20T09:42:31.321Z,1010.11
2017-10-20T09:43:10.602Z,1010.07
2017-10-20T09:44:11.059Z,1010.04
2017-10-20T09:45:11.498Z,1010.04
2017-10-20T09:46:11.949Z,1010.03
2017-10-20T09:47:12.397Z,1010.04
2017-10-20T09:48:34.009Z,1010.05
2017-10-20T09:49:13.300Z,1010.05
2017-10-20T09:50:13.760Z,1010.02
2017-10-20T09:51:14.199Z,1010.00
2017-10-20T09:52:14.647Z,1009.98
2017-10-20T09:53:15.105Z,1010.00
2017-10-20T09:54:36.707Z,1010.02
2017-10-20T09:55:15.992Z,1010.02
2017-10-20T09:56:16.445Z,1010.00
2017-10-20T09:57:16.891Z,1009.97
2017-10-20T09:58:17.363Z,1010.00
2017-10-20T09:59:17.796Z,1009.99
2017-10-20T10:00:39.405Z,1010.00
2017-10-20T10:01:18.700Z,1010.00
2017-10-20T10:02:19.141Z,1009.98
2017-10-20T10:03:19.650Z,1010.04
2017-10-20T10:04:20.043Z,1010.04
2017-10-20T10:05:20.473Z,1009.97
2017-10-20T10:06:42.096Z,1010.02
2017-10-20T10:07:21.369Z,1010.01
2017-10-20T10:08:21.819Z,1009.99
2017-10-20T10:09:22.290Z,1010.03
2017-10-20T10:10:22.719Z,1010.02
2017-10-20T10:11:23.158Z,1010.00
2017-10-20T10:12:44.770Z,1010.01
2017-10-20T10:13:24.060Z,1010.02
2017-10-20T10:14:24.481Z,1010.02
2017-10-20T10:15:24.935Z,1010.04
2017-10-20T10:16:25.368Z,1009.96
2017-10-20T10:17:25.826Z,1009.98
2017-10-20T10:18:47.467Z,1010.03
2017-10-20T10:19:26.701Z,1010.02
2017-10-20T10:20:27.141Z,1009.99
2017-10-20T10:21:27.583Z,1010.02
2017-10-20T10:22:28.030Z,1010.01
2017-10-20T10:23:28.466Z,1009.99
2017-10-20T10:24:50.081Z,1010.02
2017-10-20T10:25:29.363Z,1009.96
2017-10-20T10:26:29.794Z,1009.95
2017-10-20T10:27:30.241Z,1009.94
2017-10-20T10:28:30.690Z,1009.98
2017-10-20T10:29:31.138Z,1010.00
2017-10-20T10:30:52.733Z,1009.98
2017-10-20T10:31:32.015Z,1009.90
2017-10-20T10:32:32.468Z,1009.91
2017-10-20T10:33:32.925Z,1009.94
2017-10-20T10:34:33.346Z,1009.94
2017-10-20T10:35:33.785Z,1010.01
2017-10-20T10:36:55.400Z,1010.01
2017-10-20T10:37:34.679Z,1009.99
2017-10-20T10:38:35.140Z,1009.96
2017-10-20T10:39:35.556Z,1009.96
2017-10-20T10:40:35.996Z,1009.93
2017-10-20T10:41:36.440Z,1009.84
2017-10-20T10:42:58.052Z,1009.87
2017-10-20T10:43:37.352Z,1009.82
2017-10-20T10:44:37.814Z,1009.80
2017-10-20T10:45:38.211Z,1009.80
2017-10-20T10:46:38.678Z,1009.80
2017-10-20T10:47:39.112Z,1009.79
2017-10-20T10:50:12.610Z,1009.74
2017-10-20T10:51:13.047Z,1009.75
2017-10-20T10:53:07.610Z,1009.73
2017-10-20T10:54:08.047Z,1009.67
2017-10-20T10:56:03.629Z,1009.66
2017-10-20T10:57:04.050Z,1009.71
2017-10-20T10:58:58.662Z,1009.67
2017-10-20T10:59:59.076Z,1009.70
2017-10-20T11:01:53.670Z,1009.69
2017-10-20T11:02:54.109Z,1009.71
2017-10-20T11:04:48.725Z,1009.65
2017-10-20T11:05:49.123Z,1009.65
2017-10-20T11:07:43.714Z,1009.64
2017-10-20T11:08:44.156Z,1009.68
2017-10-20T11:10:38.761Z,1009.65
2017-10-20T11:11:39.194Z,1009.63
2017-10-20T11:13:33.782Z,1009.62
2017-10-20T11:14:34.218Z,1009.67
2017-10-20T11:16:28.818Z,1009.68
2017-10-20T11:17:29.241Z,1009.65
2017-10-20T11:19:23.827Z,1009.66
2017-10-20T11:20:24.265Z,1009.64
2017-10-20T11:22:18.867Z,1009.59
2017-10-20T11:23:19.291Z,1009.60
2017-10-20T11:25:13.903Z,1009.59
2017-10-20T11:26:14.302Z,1009.61
2017-10-20T11:28:08.889Z,1009.61
2017-10-20T11:29:09.318Z,1009.64
2017-10-20T11:31:03.904Z,1009.61
2017-10-20T11:32:04.329Z,1009.67
2017-10-20T11:33:58.903Z,1009.74
2017-10-20T11:34:59.338Z,1009.77
2017-10-20T11:36:53.936Z,1009.90
2017-10-20T11:37:54.358Z,1010.01
2017-10-20T11:39:48.934Z,1010.01
2017-10-20T11:40:49.376Z,1009.93
2017-10-20T11:42:43.962Z,1010.04
2017-10-20T11:43:44.385Z,1010.00
2017-10-20T11:45:38.956Z,1009.97
2017-10-20T11:46:39.397Z,1009.94
2017-10-20T11:48:33.989Z,1010.03
2017-10-20T11:49:34.418Z,1010.02
2017-10-20T11:51:28.983Z,1010.00
2017-10-20T11:52:29.429Z,1010.00
2017-10-20T11:54:24.013Z,1010.01
2017-10-20T11:55:24.434Z,1010.00
2017-10-20T11:57:19.018Z,1010.01
2017-10-20T11:58:19.440Z,1010.02
2017-10-20T12:00:14.018Z,1009.95
2017-10-20T12:01:14.455Z,1010.00
2017-10-20T12:03:10.031Z,1009.99
2017-10-20T12:04:10.465Z,1009.97
2017-10-20T12:06:05.036Z,1009.98
2017-10-20T12:07:05.473Z,1009.96
2017-10-20T12:09:01.045Z,1009.93
2017-10-20T12:10:01.465Z,1009.89
2017-10-20T12:11:56.248Z,1009.87
2017-10-20T12:12:56.474Z,1009.85
2017-10-20T12:14:52.193Z,1009.84
2017-10-20T12:15:52.580Z,1009.84
2017-10-20T12:17:47.248Z,1009.82
2017-10-20T12:18:47.609Z,1009.77
2017-10-20T12:20:42.274Z,1009.75
2017-10-20T12:21:42.588Z,1009.76
2017-10-20T12:23:37.283Z,1009.69
2017-10-20T12:24:37.675Z,1009.69
2017-10-20T12:26:32.290Z,1009.75
2017-10-20T12:27:32.708Z,1009.76
2017-10-20T12:29:27.392Z,1009.75
2017-10-20T12:30:27.781Z,1009.76
2017-10-20T12:32:22.545Z,1009.73
2017-10-20T12:33:22.859Z,1009.73
2017-10-20T12:34:23.307Z,1009.72
2017-10-20T12:35:23.731Z,1009.75
2017-10-20T12:36:24.365Z,1009.75
2017-10-20T12:37:24.644Z,1009.71
2017-10-20T12:38:25.207Z,1009.69
2017-10-20T12:39:25.693Z,1009.68
2017-10-20T12:40:26.129Z,1009.58
2017-10-20T12:41:26.629Z,1009.55
2017-10-20T12:42:26.974Z,1009.53
2017-10-20T12:43:27.786Z,1009.53
2017-10-20T12:44:27.843Z,1009.50